Time;durP1;ratioP1;P1;durP2;ratioP2;P2;SDS_P1;SDS_P2;PMS_P1;PMS_P2;Temp;Humidity;BMP_temperature;BMP_pressure;BME280_temperature;BME280_humidity;BME280_pressure;Samples;Min_cycle;Max_cycle;Signal;HPM_P1;HPM_P2
2023/05/31 00:05:27;;;;;;;5.67;4.20;;;18.40;80.90;;;;;;5002713;28;20487;-83
2023/05/31 00:08:06;;;;;;;5.90;4.67;;;18.70;80.40;;;;;;5017105;28;20466;-83
2023/05/31 00:10:35;;;;;;;4.60;4.20;;;18.80;79.50;;;;;;5001534;28;20930;-82
2023/05/31 00:13:31;;;;;;;6.50;4.60;;;18.70;80.20;;;;;;4997499;28;20459;-84
2023/05/31 00:16:22;;;;;;;5.50;4.13;;;18.60;80.30;;;;;;4990260;28;20917;-83
2023/05/31 00:19:44;;;;;;;6.60;4.57;;;18.50;80.80;;;;;;4989030;28;20490;-82
2023/05/31 00:22:33;;;;;;;8.13;4.57;;;18.50;81.50;;;;;;4989605;28;20470;-82
2023/05/31 00:25:14;;;;;;;7.20;4.03;;;18.80;80.40;;;;;;4977070;28;20423;-82
2023/05/31 00:27:58;;;;;;;7.73;4.50;;;18.50;80.00;;;;;;4993130;28;20494;-82
2023/05/31 00:31:03;;;;;;;7.47;4.63;;;18.50;81.00;;;;;;4990395;28;20451;-83
2023/05/31 00:34:11;;;;;;;6.80;4.30;;;18.60;80.40;;;;;;5014724;28;20446;-83
2023/05/31 00:37:23;;;;;;;6.47;4.20;;;18.40;80.50;;;;;;5006031;28;20486;-82
2023/05/31 00:40:02;;;;;;;6.60;4.80;;;18.40;81.00;;;;;;4991984;28;20471;-82
2023/05/31 00:42:38;;;;;;;7.00;4.13;;;18.30;81.90;;;;;;4996387;28;20459;-83
2023/05/31 00:45:51;;;;;;;6.67;3.97;;;18.20;82.90;;;;;;4978657;28;20577;-83
2023/05/31 00:48:37;;;;;;;6.00;4.50;;;18.10;83.40;;;;;;4947414;28;20453;-84
2023/05/31 00:51:15;;;;;;;5.20;3.80;;;18.10;83.30;;;;;;4982617;28;20471;-84
2023/05/31 00:54:03;;;;;;;6.50;3.70;;;18.10;83.50;;;;;;4998522;28;21057;-85
2023/05/31 00:56:42;;;;;;;4.83;3.97;;;18.00;83.70;;;;;;4980235;28;20482;-84
2023/05/31 00:59:32;;;;;;;7.90;4.40;;;18.00;84.30;;;;;;4994183;28;20525;-83
2023/05/31 01:02:24;;;;;;;6.20;4.20;;;18.20;84.80;;;;;;4973194;28;21154;-82
2023/05/31 01:05:11;;;;;;;;;;;;;;;;;;;;;
2023/05/31 01:07:53;;;;;;;7.67;5.00;;;18.20;83.80;;;;;;4998527;28;20495;-83
2023/05/31 01:10:31;;;;;;;7.43;4.67;;;18.00;84.60;;;;;;4988840;28;20524;-84
2023/05/31 01:13:33;;;;;;;7.10;4.30;;;18.00;84.90;;;;;;5001060;28;20489;-84
2023/05/31 01:16:47;;;;;;;4.90;4.40;;;17.90;85.20;;;;;;4995363;28;20491;-84
2023/05/31 01:20:11;;;;;;;7.40;4.63;;;18.10;84.90;;;;;;4982814;28;20489;-85
2023/05/31 01:22:57;;;;;;;6.10;4.83;;;18.00;84.90;;;;;;4983886;28;20451;-82
2023/05/31 01:26:04;;;;;;;4.67;4.17;;;18.00;85.00;;;;;;4999213;28;20459;-83
2023/05/31 01:28:51;;;;;;;6.87;3.40;;;18.00;85.30;;;;;;4994515;28;20485;-81
2023/05/31 01:31:53;;;;;;;6.20;4.07;;;17.90;85.60;;;;;;5014242;28;20511;-82
2023/05/31 01:34:50;;;;;;;7.73;4.20;;;17.80;85.40;;;;;;5000290;28;20527;-82
2023/05/31 01:37:42;;;;;;;5.47;4.33;;;18.20;84.10;;;;;;5000940;28;20478;-82
2023/05/31 01:40:43;;;;;;;5.53;4.17;;;18.30;83.30;;;;;;4982528;28;20586;-85
2023/05/31 01:43:35;;;;;;;4.27;3.43;;;18.20;83.30;;;;;;4983708;28;20443;-83
2023/05/31 01:46:17;;;;;;;4.83;4.30;;;18.00;83.70;;;;;;4980905;28;20503;-83
2023/05/31 01:48:52;;;;;;;4.00;3.60;;;17.90;84.80;;;;;;4981833;28;20482;-83
2023/05/31 01:51:47;;;;;;;6.23;4.50;;;17.90;84.70;;;;;;4996515;28;20861;-82
2023/05/31 01:54:30;;;;;;;6.57;4.10;;;17.90;84.80;;;;;;4988998;28;20462;-84
2023/05/31 01:57:27;;;;;;;6.47;4.43;;;17.80;84.80;;;;;;4999706;28;20483;-82
2023/05/31 02:00:15;;;;;;;4.43;3.80;;;17.70;85.30;;;;;;4976046;28;20479;-83
2023/05/31 02:02:58;;;;;;;4.90;3.90;;;17.70;86.10;;;;;;4977202;28;20448;-83
2023/05/31 02:05:33;;;;;;;4.57;3.47;;;17.80;86.40;;;;;;4974953;28;20476;-84
2023/05/31 02:08:33;;;;;;;5.13;3.80;;;17.70;86.90;;;;;;4970921;28;20590;-82
2023/05/31 02:11:20;;;;;;;5.37;3.70;;;17.60;87.10;;;;;;4991004;28;20526;-83
2023/05/31 02:13:52;;;;;;;6.20;4.73;;;17.50;87.30;;;;;;4977334;28;20478;-82
2023/05/31 02:16:22;;;;;;;5.10;3.90;;;17.60;87.80;;;;;;4977768;28;20483;-84
2023/05/31 02:19:08;;;;;;;4.93;4.00;;;17.70;87.40;;;;;;4992357;28;20493;-82
2023/05/31 02:21:41;;;;;;;5.97;4.00;;;17.60;87.20;;;;;;4977898;28;20451;-81
2023/05/31 02:24:10;;;;;;;3.77;3.47;;;17.50;87.60;;;;;;4979982;28;20525;-83
2023/05/31 02:26:55;;;;;;;5.93;4.00;;;17.40;87.70;;;;;;4981111;28;20487;-83
2023/05/31 02:29:27;;;;;;;6.17;3.63;;;17.50;87.70;;;;;;4977848;28;20467;-83
2023/05/31 02:32:15;;;;;;;5.20;3.90;;;17.70;86.40;;;;;;4978110;28;20541;-84
2023/05/31 02:37:59;;;;;;;5.30;3.63;;;17.60;87.40;;;;;;4975428;28;21155;-84
2023/05/31 02:40:39;;;;;;;6.00;3.70;;;17.50;87.80;;;;;;4996078;28;20495;-83
2023/05/31 02:43:24;;;;;;;8.83;4.03;;;17.50;88.10;;;;;;4979563;28;20470;-84
2023/05/31 02:46:01;;;;;;;7.40;4.03;;;17.40;88.60;;;;;;4993281;28;20459;-85
2023/05/31 02:48:54;;;;;;;5.47;4.33;;;17.40;89.10;;;;;;4991190;28;20458;-82
2023/05/31 02:51:23;;;;;;;5.20;3.93;;;17.50;89.20;;;;;;4993354;28;20846;-82
2023/05/31 02:53:55;;;;;;;8.23;4.50;;;17.50;89.30;;;;;;4978880;28;20478;-84
2023/05/31 02:56:23;;;;;;;4.97;3.60;;;17.40;89.40;;;;;;4980391;28;20490;-82
2023/05/31 02:58:56;;;;;;;4.50;3.27;;;17.40;90.00;;;;;;4980236;28;20491;-83
2023/05/31 03:01:43;;;;;;;4.60;3.67;;;17.60;89.40;;;;;;4997523;28;20541;-83
2023/05/31 03:04:35;;;;;;;7.90;3.90;;;17.50;89.30;;;;;;4998455;28;20455;-81
2023/05/31 03:07:10;;;;;;;4.27;3.87;;;17.40;90.00;;;;;;4985196;28;20478;-84
2023/05/31 03:09:55;;;;;;;4.87;4.00;;;17.40;90.10;;;;;;4984013;28;20467;-82
2023/05/31 03:12:40;;;;;;;6.13;3.90;;;17.30;90.10;;;;;;5005113;28;20499;-82
2023/05/31 03:15:18;;;;;;;5.07;3.87;;;17.20;90.30;;;;;;5020747;28;20598;-82
2023/05/31 03:18:00;;;;;;;4.97;4.10;;;17.20;90.40;;;;;;5018160;28;20674;-82
2023/05/31 03:20:45;;;;;;;6.70;4.30;;;17.10;90.50;;;;;;4998814;28;20475;-83
2023/05/31 03:23:22;;;;;;;9.33;4.23;;;17.20;90.60;;;;;;4993742;28;20455;-83
2023/05/31 03:25:50;;;;;;;5.60;4.80;;;17.20;90.60;;;;;;5016011;28;20526;-84
2023/05/31 03:28:34;;;;;;;5.17;3.77;;;17.30;90.50;;;;;;4996136;28;20449;-84
2023/05/31 03:31:18;;;;;;;6.43;4.10;;;17.20;90.30;;;;;;4998414;28;20479;-83
2023/05/31 03:34:08;;;;;;;5.33;3.40;;;17.20;90.30;;;;;;4994298;28;20501;-85
2023/05/31 03:36:55;;;;;;;4.37;3.87;;;17.20;90.40;;;;;;4978380;28;20482;-83
2023/05/31 03:39:31;;;;;;;6.73;4.40;;;17.10;90.50;;;;;;5015305;28;20466;-82
2023/05/31 03:42:13;;;;;;;4.90;3.87;;;17.10;90.40;;;;;;4998216;28;20654;-82
2023/05/31 03:45:25;;;;;;;4.03;3.47;;;17.10;90.40;;;;;;4995511;28;20472;-83
2023/05/31 03:48:20;;;;;;;5.40;3.13;;;17.10;90.50;;;;;;4933225;28;20505;-82
2023/05/31 03:51:46;;;;;;;8.53;4.40;;;17.10;90.40;;;;;;4969756;28;20486;-84
2023/05/31 03:54:23;;;;;;;6.13;3.70;;;17.30;90.50;;;;;;4967010;28;20466;-84
2023/05/31 03:57:06;;;;;;;6.40;4.50;;;17.30;89.30;;;;;;4976259;28;21473;-82
2023/05/31 04:00:03;;;;;;;4.33;3.30;;;17.20;89.90;;;;;;4978314;28;20487;-84
2023/05/31 04:02:57;;;;;;;5.77;3.80;;;17.10;90.20;;;;;;4978750;28;20462;-85
2023/05/31 04:05:49;;;;;;;5.80;3.50;;;17.00;90.50;;;;;;4978909;28;20494;-84
2023/05/31 04:11:47;;;;;;;9.53;3.93;;;17.00;90.90;;;;;;4963032;28;20573;-84
2023/05/31 04:14:31;;;;;;;4.40;3.67;;;17.30;90.80;;;;;;4972938;28;20876;-85
2023/05/31 04:17:36;;;;;;;4.17;3.47;;;17.20;90.30;;;;;;5010171;22;21092;-84
2023/05/31 04:20:28;;;;;;;5.30;3.20;;;17.00;90.50;;;;;;5022252;28;20508;-84
2023/05/31 04:23:14;;;;;;;5.03;3.77;;;17.10;90.40;;;;;;5025661;28;20544;-83
2023/05/31 04:25:59;;;;;;;5.50;3.80;;;17.10;90.40;;;;;;5030995;28;21197;-83
2023/05/31 04:29:13;;;;;;;3.87;3.50;;;17.20;90.20;;;;;;5005968;28;20966;-83
2023/05/31 04:31:51;;;;;;;7.73;4.37;;;17.10;90.20;;;;;;5008839;28;20456;-84
2023/05/31 04:34:38;;;;;;;;;;;;;;;;;;;;;
2023/05/31 04:37:32;;;;;;;4.20;3.67;;;17.30;90.10;;;;;;5005982;28;20551;-82
2023/05/31 04:40:24;;;;;;;5.80;3.57;;;17.40;89.90;;;;;;5009280;28;20508;-83
2023/05/31 04:43:24;;;;;;;5.40;3.60;;;17.30;89.80;;;;;;5003834;28;20484;-83
2023/05/31 04:46:01;;;;;;;4.70;4.10;;;17.30;89.30;;;;;;5013054;28;20462;-82
2023/05/31 04:49:10;;;;;;;5.00;3.80;;;17.30;89.40;;;;;;5015205;28;20461;-84
2023/05/31 04:52:17;;;;;;;4.20;3.60;;;17.30;89.30;;;;;;5012828;28;21026;-81
2023/05/31 04:54:53;;;;;;;5.73;3.50;;;17.50;89.70;;;;;;5013227;28;20462;-83
2023/05/31 04:57:27;;;;;;;4.63;3.23;;;17.70;87.80;;;;;;5016317;28;20523;-83
2023/05/31 05:00:16;;;;;;;6.20;3.60;;;17.50;87.90;;;;;;5013322;28;21157;-82
2023/05/31 05:03:04;;;;;;;5.33;3.30;;;17.50;88.50;;;;;;5027918;28;20462;-84
2023/05/31 05:05:48;;;;;;;4.80;3.50;;;17.70;88.30;;;;;;5030420;28;20465;-84
2023/05/31 05:08:41;;;;;;;5.90;3.20;;;17.80;87.70;;;;;;5021645;28;20457;-83
2023/05/31 05:11:28;;;;;;;4.63;3.60;;;17.60;86.80;;;;;;5019016;28;20491;-83
2023/05/31 05:14:32;;;;;;;5.60;3.80;;;17.50;87.20;;;;;;5021071;28;21831;-84
2023/05/31 05:17:18;;;;;;;3.93;3.53;;;17.40;87.60;;;;;;5016702;28;20820;-82
2023/05/31 05:20:19;;;;;;;4.07;3.10;;;17.40;87.70;;;;;;5020893;28;20509;-82
2023/05/31 05:26:44;;;;;;;3.63;3.27;;;17.80;86.60;;;;;;5006112;28;21071;-82
2023/05/31 05:29:52;;;;;;;4.60;3.20;;;17.90;84.60;;;;;;5022534;28;20441;-83
2023/05/31 05:33:04;;;;;;;4.67;3.97;;;17.70;84.80;;;;;;5025234;28;20472;-84
2023/05/31 05:36:14;;;;;;;5.10;3.10;;;17.70;85.10;;;;;;5025818;28;20476;-83
2023/05/31 05:39:12;;;;;;;4.70;3.50;;;17.60;85.50;;;;;;5001671;28;20604;-82
2023/05/31 05:42:32;;;;;;;5.30;2.97;;;17.70;86.00;;;;;;5027331;28;20455;-84
2023/05/31 05:45:39;;;;;;;;;;;;;;;;;;;;;
2023/05/31 05:48:54;;;;;;;;;;;;;;;;;;;;;
2023/05/31 05:52:05;;;;;;;4.30;3.17;;;17.90;85.50;;;;;;5047924;28;20432;-82
2023/05/31 05:55:16;;;;;;;;;;;;;;;;;;;;;
2023/05/31 05:58:16;;;;;;;5.53;4.17;;;18.20;83.70;;;;;;5023471;28;20449;-82
2023/05/31 06:01:40;;;;;;;5.00;3.43;;;18.40;83.10;;;;;;5044529;28;20519;-80
2023/05/31 06:04:53;;;;;;;;;;;;;;;;;;;;;
2023/05/31 06:07:55;;;;;;;7.10;3.50;;;18.50;83.30;;;;;;5013949;28;20488;-84
2023/05/31 06:11:10;;;;;;;5.23;3.77;;;18.60;82.10;;;;;;5014851;28;20533;-83
2023/05/31 06:21:11;;;;;;;5.50;4.63;;;18.60;82.30;;;;;;4950737;28;20508;-82
2023/05/31 06:27:59;;;;;;;6.97;3.40;;;19.00;80.40;;;;;;5008985;28;20476;-83
2023/05/31 06:31:04;;;;;;;6.60;3.70;;;19.40;79.00;;;;;;4992803;28;20525;-84
2023/05/31 06:34:13;;;;;;;5.10;3.80;;;19.50;76.80;;;;;;5013638;28;20581;-83
2023/05/31 06:37:16;;;;;;;3.60;2.90;;;19.20;77.60;;;;;;5004853;28;20488;-83
2023/05/31 06:40:23;;;;;;;;;;;;;;;;;;;;;
2023/05/31 06:43:33;;;;;;;5.77;3.47;;;18.70;78.50;;;;;;5032608;28;20779;-82
2023/05/31 06:46:37;;;;;;;4.20;3.37;;;18.70;78.80;;;;;;5033086;28;20477;-85
2023/05/31 06:49:55;;;;;;;;;;;;;;;;;;;;;
2023/05/31 06:52:49;;;;;;;4.07;3.53;;;19.10;78.30;;;;;;5026320;28;20457;-84
2023/05/31 06:56:01;;;;;;;7.00;3.23;;;19.30;76.90;;;;;;5014141;28;20455;-82
2023/05/31 06:59:07;;;;;;;3.30;3.00;;;19.30;77.20;;;;;;5005436;28;21125;-83
2023/05/31 07:05:07;;;;;;;5.53;3.30;;;19.70;76.40;;;;;;5017594;28;20464;-83
2023/05/31 07:07:54;;;;;;;4.80;3.10;;;19.60;75.40;;;;;;5018843;28;20532;-83
2023/05/31 07:10:52;;;;;;;;;;;;;;;;;;;;;
2023/05/31 07:13:32;;;;;;;3.00;2.70;;;20.10;72.30;;;;;;5023796;28;20449;-84
2023/05/31 07:16:29;;;;;;;;;;;;;;;;;;;;;
2023/05/31 07:19:47;;;;;;;3.30;3.00;;;19.90;73.60;;;;;;5022062;28;20445;-84
2023/05/31 07:25:59;;;;;;;3.60;2.47;;;20.50;70.70;;;;;;5021719;28;20462;-84
2023/05/31 07:32:35;;;;;;;3.73;2.70;;;20.70;69.50;;;;;;5001461;28;20492;-84
2023/05/31 07:35:19;;;;;;;3.87;2.70;;;20.70;69.20;;;;;;5012220;28;20540;-82
2023/05/31 07:37:53;;;;;;;9.13;3.37;;;20.60;68.70;;;;;;5027523;28;20549;-82
2023/05/31 07:40:38;;;;;;;2.53;2.33;;;20.70;67.10;;;;;;5013295;28;22352;-85
2023/05/31 07:43:36;;;;;;;3.60;2.30;;;20.90;68.90;;;;;;4999858;28;20466;-83
2023/05/31 07:46:20;;;;;;;4.33;2.53;;;20.80;66.90;;;;;;5009678;28;20477;-83
2023/05/31 07:56:17;;;;;;;5.30;2.87;;;21.80;64.10;;;;;;5011376;28;20465;-84
2023/05/31 07:59:16;;;;;;;5.90;3.33;;;21.30;63.80;;;;;;5014844;28;20497;-83
2023/05/31 08:01:57;;;;;;;4.07;2.50;;;21.40;64.80;;;;;;5020952;28;20527;-82
2023/05/31 08:05:01;;;;;;;2.60;2.40;;;21.80;63.60;;;;;;5028783;28;20454;-83
2023/05/31 08:08:19;;;;;;;3.13;2.20;;;21.80;63.70;;;;;;5037599;28;20464;-82
2023/05/31 08:11:32;;;;;;;3.73;2.53;;;21.70;61.80;;;;;;5019192;28;20456;-83
2023/05/31 08:18:25;;;;;;;2.87;2.50;;;22.10;59.60;;;;;;5042395;28;20456;-83
2023/05/31 08:39:37;;;;;;;;;;;;;;;;;;;;;
2023/05/31 08:43:04;;;;;;;2.53;1.97;;;23.80;53.30;;;;;;4991618;28;20548;-85
2023/05/31 08:46:27;;;;;;;1.97;1.87;;;24.40;52.10;;;;;;4990438;28;20585;-81
2023/05/31 08:49:55;;;;;;;;;;;;;;;;;;;;;
2023/05/31 08:53:47;;;;;;;;;;;;;;;;;;;;;
2023/05/31 08:57:24;;;;;;;2.50;1.80;;;27.40;44.70;;;;;;4932131;29;21166;-81
2023/05/31 09:07:21;;;;;;;2.27;1.60;;;27.00;43.20;;;;;;4932160;28;20474;-82
2023/05/31 09:10:38;;;;;;;3.50;1.70;;;28.10;42.40;;;;;;4921078;28;20454;-84
2023/05/31 09:22:06;;;;;;;1.97;1.43;;;30.60;34.80;;;;;;4864209;29;20492;-83
2023/05/31 09:33:10;;;;;;;1.60;1.50;;;30.30;33.80;;;;;;4958946;28;20512;-84
2023/05/31 09:36:21;;;;;;;1.40;1.30;;;30.60;33.60;;;;;;4944368;28;20607;-83
2023/05/31 09:40:09;;;;;;;2.00;1.50;;;31.20;33.00;;;;;;4893702;28;20470;-83
2023/05/31 09:43:26;;;;;;;;;;;;;;;;;;;;;
2023/05/31 09:47:27;;;;;;;;;;;;;;;;;;;;;
2023/05/31 09:50:45;;;;;;;2.30;1.70;;;32.40;30.00;;;;;;4966036;28;20466;-83
2023/05/31 09:54:33;;;;;;;5.20;1.80;;;33.00;29.30;;;;;;4976111;28;20533;-83
2023/05/31 10:01:38;;;;;;;3.03;1.40;;;34.50;28.70;;;;;;5019594;28;20462;-83
2023/05/31 10:05:00;;;;;;;;;;;;;;;;;;;;;
2023/05/31 10:08:18;;;;;;;;;;;;;;;;;;;;;
2023/05/31 10:11:26;;;;;;;;;;;;;;;;;;;;;
2023/05/31 10:14:39;;;;;;;1.33;1.20;;;33.30;29.40;;;;;;4990580;28;20436;-83
2023/05/31 10:17:45;;;;;;;1.87;1.77;;;33.10;28.90;;;;;;5005625;28;20477;-84
2023/05/31 10:21:22;;;;;;;2.07;1.80;;;33.30;29.30;;;;;;4972324;28;20474;-83
2023/05/31 10:59:15;;;;;;;;;;;;;;;;;;;;;
2023/05/31 11:32:39;;;;;;;1.20;1.10;;;32.20;29.50;;;;;;4917085;29;20469;-84
2023/05/31 11:40:14;;;;;;;2.60;1.37;;;32.70;28.20;;;;;;4873996;29;20558;-82
2023/05/31 11:43:34;;;;;;;2.17;1.50;;;32.80;28.40;;;;;;4823698;29;20464;-81
2023/05/31 11:47:22;;;;;;;2.07;1.30;;;32.40;28.50;;;;;;4874956;29;20479;-83
2023/05/31 11:51:02;;;;;;;1.60;1.50;;;32.30;28.40;;;;;;4870770;29;20436;-83
2023/05/31 11:54:18;;;;;;;2.17;1.60;;;32.00;28.60;;;;;;4863648;29;21210;-83
2023/05/31 11:57:03;;;;;;;1.73;1.37;;;31.50;29.00;;;;;;4880106;29;20527;-83
2023/05/31 11:59:39;;;;;;;1.73;1.63;;;31.60;29.10;;;;;;4864954;29;20585;-85
2023/05/31 12:02:20;;;;;;;2.37;1.33;;;32.00;29.10;;;;;;4903900;29;20497;-84
2023/05/31 12:05:18;;;;;;;2.70;1.43;;;32.20;28.40;;;;;;4933757;28;20463;-83
2023/05/31 12:08:40;;;;;;;1.17;1.07;;;31.60;28.60;;;;;;4983507;28;20450;-84
2023/05/31 12:16:04;;;;;;;1.40;1.30;;;31.60;28.50;;;;;;4871630;29;20432;-84
2023/05/31 12:19:05;;;;;;;;;;;;;;;;;;;;;
2023/05/31 12:21:54;;;;;;;2.10;1.57;;;30.80;29.10;;;;;;4867210;29;20500;-83
2023/05/31 12:25:08;;;;;;;1.63;1.40;;;31.30;29.60;;;;;;4904630;28;20893;-84
2023/05/31 12:31:28;;;;;;;2.20;1.40;;;33.00;28.80;;;;;;4943018;28;20502;-84
2023/05/31 12:34:23;;;;;;;2.37;1.33;;;32.70;28.60;;;;;;4944010;28;20463;-85
2023/05/31 12:37:19;;;;;;;2.13;1.73;;;32.20;29.00;;;;;;4944142;28;20565;-83
2023/05/31 12:40:31;;;;;;;1.83;1.57;;;31.70;29.40;;;;;;4944801;28;20551;-83
2023/05/31 12:43:56;;;;;;;3.43;1.50;;;32.30;29.90;;;;;;4929862;28;20493;-84
2023/05/31 12:47:06;;;;;;;1.93;1.83;;;32.90;28.50;;;;;;4855978;29;20523;-84
2023/05/31 12:49:37;;;;;;;1.50;1.40;;;32.50;29.20;;;;;;4946282;28;20554;-85
2023/05/31 12:52:05;;;;;;;2.00;1.73;;;32.40;29.30;;;;;;5001838;28;20451;-85
2023/05/31 12:55:19;;;;;;;;;;;;;;;;;;;;;
2023/05/31 12:57:57;;;;;;;1.90;1.57;;;32.00;29.90;;;;;;4986502;28;20482;-81
2023/05/31 13:00:34;;;;;;;1.73;1.40;;;31.80;30.50;;;;;;4989841;28;20493;-84
2023/05/31 13:03:12;;;;;;;1.70;1.60;;;32.20;30.60;;;;;;4987998;28;20459;-84
2023/05/31 13:10:21;;;;;;;3.63;1.60;;;32.10;30.70;;;;;;4949811;28;20481;-80
2023/05/31 13:24:24;;;;;;;2.73;2.00;;;31.70;32.40;;;;;;4890843;29;20612;-81
2023/05/31 13:28:06;;;;;;;2.57;2.20;;;31.40;33.90;;;;;;4882147;29;20533;-82
2023/05/31 13:35:16;;;;;;;2.93;2.30;;;31.50;34.70;;;;;;4938377;28;20468;-81
2023/05/31 13:46:28;;;;;;;2.87;2.40;;;31.20;36.30;;;;;;4788908;29;20490;-83
2023/05/31 13:49:18;;;;;;;2.27;2.03;;;31.40;35.30;;;;;;4801804;29;20811;-84
2023/05/31 13:52:05;;;;;;;2.00;1.70;;;31.30;35.50;;;;;;4914164;29;20458;-85
2023/05/31 13:54:54;;;;;;;1.60;1.50;;;31.20;35.90;;;;;;4926488;29;20466;-85
2023/05/31 13:57:24;;;;;;;2.90;2.10;;;31.40;35.10;;;;;;4984729;28;20476;-86
2023/05/31 13:59:53;;;;;;;2.50;1.83;;;31.10;35.50;;;;;;4986372;28;20466;-84
2023/05/31 14:02:23;;;;;;;2.50;1.73;;;30.80;36.10;;;;;;4986587;28;20590;-84
2023/05/31 14:04:53;;;;;;;2.83;2.00;;;30.70;36.00;;;;;;4981695;28;20458;-84
2023/05/31 14:07:23;;;;;;;2.63;1.87;;;30.70;36.40;;;;;;4985714;28;20467;-82
2023/05/31 14:09:50;;;;;;;4.53;2.40;;;30.60;36.60;;;;;;4984149;28;20470;-84
2023/05/31 14:12:19;;;;;;;2.00;1.67;;;30.30;36.60;;;;;;4981309;28;20448;-83
2023/05/31 14:15:02;;;;;;;2.30;1.60;;;30.20;36.90;;;;;;4987994;28;20458;-85
2023/05/31 14:17:35;;;;;;;2.20;2.00;;;30.30;36.60;;;;;;4985270;28;20475;-85
2023/05/31 14:20:10;;;;;;;3.27;2.03;;;30.20;36.30;;;;;;4998786;28;20456;-83
2023/05/31 14:22:37;;;;;;;2.10;1.90;;;30.20;36.60;;;;;;5000233;28;20498;-83
2023/05/31 14:25:08;;;;;;;2.83;1.70;;;30.00;36.90;;;;;;5002607;28;20463;-82
2023/05/31 14:27:54;;;;;;;2.00;1.60;;;29.90;36.80;;;;;;5002746;28;20469;-82
2023/05/31 14:30:30;;;;;;;4.10;2.03;;;29.60;37.00;;;;;;4990729;28;20534;-83
2023/05/31 14:33:09;;;;;;;1.63;1.53;;;29.60;37.70;;;;;;4989336;28;20458;-84
2023/05/31 14:35:44;;;;;;;3.50;2.17;;;29.60;37.80;;;;;;4984944;28;20442;-83
2023/05/31 14:38:14;;;;;;;1.77;1.67;;;29.70;37.10;;;;;;5005762;28;20492;-83
2023/05/31 14:40:48;;;;;;;2.33;2.13;;;29.70;37.50;;;;;;4986349;28;20566;-82
2023/05/31 14:43:18;;;;;;;2.43;1.73;;;29.70;37.50;;;;;;4981538;28;20440;-82
2023/05/31 14:45:53;;;;;;;4.63;1.80;;;29.60;38.10;;;;;;4983011;28;20462;-82
2023/05/31 14:48:53;;;;;;;2.27;1.87;;;29.50;38.20;;;;;;5000307;28;20471;-85
2023/05/31 14:51:57;;;;;;;;;;;;;;;;;;;;;
2023/05/31 14:54:33;;;;;;;3.30;2.13;;;29.20;38.40;;;;;;4980154;28;20477;-84
2023/05/31 14:57:04;;;;;;;2.70;1.90;;;29.50;38.20;;;;;;4977901;28;20497;-83
2023/05/31 14:59:32;;;;;;;1.80;1.70;;;29.40;38.30;;;;;;4975478;28;20491;-81
2023/05/31 15:02:06;;;;;;;2.77;2.10;;;29.20;38.30;;;;;;4976610;28;21271;-83
2023/05/31 15:04:38;;;;;;;2.77;1.70;;;29.10;39.10;;;;;;4978271;28;20523;-82
2023/05/31 15:07:13;;;;;;;1.87;1.60;;;29.10;39.10;;;;;;4978653;28;20506;-83
2023/05/31 15:09:47;;;;;;;2.73;1.90;;;29.10;39.40;;;;;;4984288;28;20483;-84
2023/05/31 15:12:19;;;;;;;2.50;1.97;;;29.40;39.10;;;;;;4991630;28;20447;-84
2023/05/31 15:14:49;;;;;;;1.90;1.67;;;29.40;38.90;;;;;;4986830;28;21010;-83
2023/05/31 15:17:20;;;;;;;2.07;1.87;;;29.50;38.70;;;;;;4985538;28;20494;-82
2023/05/31 15:19:49;;;;;;;4.10;2.37;;;29.50;38.40;;;;;;4983388;28;20677;-84
2023/05/31 15:22:19;;;;;;;2.40;1.67;;;29.50;38.60;;;;;;4985126;28;20541;-84
2023/05/31 15:24:49;;;;;;;2.03;1.83;;;29.30;38.70;;;;;;4989832;28;20466;-85
2023/05/31 15:27:19;;;;;;;2.03;1.50;;;29.10;38.50;;;;;;4989598;28;20478;-83
2023/05/31 15:29:52;;;;;;;2.20;2.00;;;28.90;39.10;;;;;;5002728;28;20448;-82
2023/05/31 15:32:23;;;;;;;2.03;1.43;;;29.00;38.80;;;;;;4985552;28;20439;-85
2023/05/31 15:34:55;;;;;;;2.17;1.93;;;28.90;39.10;;;;;;4985180;28;20461;-83
2023/05/31 15:37:22;;;;;;;2.90;1.83;;;29.00;38.80;;;;;;4984551;28;20478;-83
2023/05/31 15:39:50;;;;;;;3.63;2.20;;;28.80;39.30;;;;;;4985205;28;20482;-83
2023/05/31 15:42:21;;;;;;;3.60;2.43;;;28.80;40.10;;;;;;4984764;28;20483;-83
2023/05/31 15:44:51;;;;;;;2.13;1.90;;;28.80;39.60;;;;;;4985499;28;20576;-85
2023/05/31 15:47:22;;;;;;;3.17;2.10;;;28.90;39.30;;;;;;4981005;28;20475;-83
2023/05/31 15:49:52;;;;;;;3.03;2.13;;;28.80;39.50;;;;;;4984289;28;20566;-83
2023/05/31 15:52:19;;;;;;;3.40;2.07;;;28.90;39.50;;;;;;4985690;28;20545;-82
2023/05/31 15:54:55;;;;;;;1.93;1.77;;;28.90;39.30;;;;;;4983139;28;20462;-82
2023/05/31 15:57:26;;;;;;;2.37;1.73;;;28.80;39.80;;;;;;5002008;28;20546;-84
2023/05/31 15:59:56;;;;;;;2.00;1.80;;;28.90;39.70;;;;;;5003258;28;20455;-83
2023/05/31 16:02:29;;;;;;;2.10;1.90;;;29.00;39.60;;;;;;4997415;28;20494;-84
2023/05/31 16:05:00;;;;;;;2.40;1.70;;;28.90;39.80;;;;;;4992673;28;20526;-82
2023/05/31 16:07:30;;;;;;;2.70;1.80;;;28.80;39.90;;;;;;4993911;28;20569;-81
2023/05/31 16:10:02;;;;;;;2.80;1.80;;;28.70;40.10;;;;;;4992952;28;20453;-82
2023/05/31 16:12:32;;;;;;;2.77;2.00;;;28.50;40.40;;;;;;4992522;28;20455;-83
2023/05/31 16:15:05;;;;;;;2.37;1.77;;;28.50;39.90;;;;;;4996045;28;20498;-83
2023/05/31 16:17:35;;;;;;;3.30;1.80;;;28.40;40.00;;;;;;4987238;28;20480;-82
2023/05/31 16:20:11;;;;;;;1.87;1.73;;;28.30;40.40;;;;;;4981109;28;20451;-83
2023/05/31 16:22:41;;;;;;;2.33;1.73;;;28.20;40.10;;;;;;4980171;28;20582;-84
2023/05/31 16:25:13;;;;;;;1.73;1.63;;;28.20;41.00;;;;;;4981023;28;20766;-85
2023/05/31 16:27:45;;;;;;;3.53;2.40;;;28.20;40.70;;;;;;4983649;28;20475;-84
2023/05/31 16:30:25;;;;;;;5.37;3.10;;;28.00;41.40;;;;;;4978119;28;22074;-83
2023/05/31 16:33:03;;;;;;;2.10;1.90;;;28.20;40.80;;;;;;4984462;28;20455;-84
2023/05/31 16:35:30;;;;;;;2.93;2.27;;;28.10;40.80;;;;;;4985029;28;20534;-82
2023/05/31 16:38:18;;;;;;;5.07;3.07;;;28.20;40.70;;;;;;5061240;22;20512;-82
2023/05/31 16:40:57;;;;;;;4.20;3.80;;;28.10;41.70;;;;;;5042422;28;20522;-84
2023/05/31 16:43:36;;;;;;;3.63;3.03;;;28.00;41.40;;;;;;5034952;28;20974;-84
2023/05/31 16:46:03;;;;;;;2.53;2.00;;;27.90;41.50;;;;;;5037663;28;20460;-84
2023/05/31 16:48:42;;;;;;;6.20;2.30;;;27.90;41.30;;;;;;5042781;28;20473;-84
2023/05/31 16:51:24;;;;;;;2.33;2.10;;;27.80;41.30;;;;;;5044028;28;20456;-83
2023/05/31 16:54:06;;;;;;;4.03;3.10;;;27.70;41.30;;;;;;5039331;28;20456;-82
2023/05/31 16:56:55;;;;;;;3.40;2.40;;;27.80;41.50;;;;;;5043107;28;20471;-86
2023/05/31 16:59:31;;;;;;;3.13;2.50;;;27.70;41.90;;;;;;5048796;28;20440;-84
2023/05/31 17:02:11;;;;;;;3.10;2.50;;;27.50;42.50;;;;;;5039332;28;20469;-82
2023/05/31 17:04:45;;;;;;;3.80;3.43;;;27.70;42.60;;;;;;5043964;28;20480;-83
2023/05/31 17:07:26;;;;;;;2.83;2.63;;;27.70;42.40;;;;;;5044224;28;21677;-84
2023/05/31 17:10:13;;;;;;;1.87;1.77;;;27.50;42.60;;;;;;5063285;28;20432;-82
2023/05/31 17:12:50;;;;;;;2.40;1.93;;;27.60;42.60;;;;;;5053574;28;21223;-85
2023/05/31 17:15:22;;;;;;;1.87;1.63;;;27.60;42.60;;;;;;5031710;28;20448;-82
2023/05/31 17:17:52;;;;;;;2.07;1.80;;;27.30;42.40;;;;;;5034608;28;22590;-85
2023/05/31 17:20:21;;;;;;;2.30;2.10;;;27.10;42.70;;;;;;5038878;28;20440;-83
2023/05/31 17:22:50;;;;;;;3.50;2.23;;;26.90;43.20;;;;;;5035404;28;20898;-83
2023/05/31 17:25:18;;;;;;;2.20;1.80;;;26.90;43.20;;;;;;5038572;28;20983;-83
2023/05/31 17:27:45;;;;;;;2.80;2.10;;;26.90;43.20;;;;;;5034882;28;20488;-86
2023/05/31 17:30:12;;;;;;;3.87;2.00;;;26.90;42.90;;;;;;5034646;28;20788;-86
2023/05/31 17:32:39;;;;;;;3.23;2.00;;;26.90;43.00;;;;;;5035732;28;20466;-85
2023/05/31 17:35:07;;;;;;;6.77;2.10;;;26.90;43.00;;;;;;5040029;28;20511;-83
2023/05/31 17:37:34;;;;;;;1.73;1.63;;;26.90;43.30;;;;;;5032275;28;20486;-85
2023/05/31 17:40:01;;;;;;;1.77;1.50;;;26.90;43.30;;;;;;5040250;28;20476;-82
2023/05/31 17:42:28;;;;;;;1.97;1.63;;;26.90;43.60;;;;;;5034521;28;20484;-83
2023/05/31 17:44:55;;;;;;;2.57;1.47;;;26.90;43.60;;;;;;5036328;28;20462;-85
2023/05/31 17:47:24;;;;;;;2.23;2.03;;;27.00;43.80;;;;;;5036399;28;20452;-83
2023/05/31 17:49:55;;;;;;;2.80;2.60;;;26.80;43.90;;;;;;5033878;28;20659;-81
2023/05/31 17:52:23;;;;;;;3.63;2.13;;;26.80;44.00;;;;;;5037294;28;20492;-85
2023/05/31 17:54:54;;;;;;;2.50;2.07;;;26.80;44.10;;;;;;5038299;28;20819;-85
2023/05/31 17:57:24;;;;;;;2.40;2.00;;;26.80;44.50;;;;;;5037579;28;20463;-84
2023/05/31 17:59:53;;;;;;;3.00;1.97;;;26.80;44.80;;;;;;5034886;28;20487;-83
2023/05/31 18:02:20;;;;;;;2.20;1.63;;;26.70;44.40;;;;;;5033753;28;20542;-83
2023/05/31 18:04:51;;;;;;;2.67;2.00;;;26.60;44.20;;;;;;5030913;28;20440;-82
2023/05/31 18:07:18;;;;;;;3.47;2.03;;;26.70;44.10;;;;;;5033278;28;20635;-83
2023/05/31 18:09:45;;;;;;;1.90;1.73;;;26.70;44.30;;;;;;5032809;28;20607;-82
2023/05/31 18:12:12;;;;;;;2.30;2.13;;;26.40;45.00;;;;;;5032502;28;20449;-83
2023/05/31 18:14:44;;;;;;;4.47;2.03;;;26.40;45.30;;;;;;5033905;28;20480;-84
2023/05/31 18:17:14;;;;;;;3.23;2.50;;;26.40;44.80;;;;;;5035654;28;20495;-84
2023/05/31 18:19:41;;;;;;;3.00;2.27;;;26.40;44.70;;;;;;5033621;28;20496;-84
2023/05/31 18:22:08;;;;;;;3.60;1.63;;;26.20;44.90;;;;;;5035815;28;20487;-83
2023/05/31 18:24:37;;;;;;;2.40;1.87;;;26.10;45.30;;;;;;5032320;28;20449;-82